createdAt,value
2022-09-09T00:02:03.208Z,97347.55
2022-09-09T00:04:34.326Z,97348.33
2022-09-09T00:07:23.919Z,97345.21
2022-09-09T00:10:27.045Z,97351.41
2022-09-09T00:12:58.141Z,97351.41
2022-09-09T00:15:53.315Z,97344.77
2022-09-09T00:18:45.531Z,97344.57
2022-09-09T00:21:17.931Z,97353.08
2022-09-09T00:23:48.892Z,97351.49
2022-09-09T00:26:23.703Z,97354.00
2022-09-09T00:28:57.384Z,97355.94
2022-09-09T00:31:27.937Z,97351.08
2022-09-09T00:34:03.169Z,97347.42
2022-09-09T00:36:32.752Z,97336.37
2022-09-09T00:39:02.492Z,97337.59
2022-09-09T00:41:45.068Z,97333.28
2022-09-09T00:44:35.821Z,97324.16
2022-09-09T00:47:28.178Z,97330.73
2022-09-09T00:50:17.512Z,97329.70
2022-09-09T00:52:58.046Z,97328.86
2022-09-09T00:55:38.350Z,97330.15
2022-09-09T00:58:08.605Z,97333.58
2022-09-09T01:00:53.513Z,97334.66
2022-09-09T01:03:38.982Z,97333.45
2022-09-09T01:06:28.687Z,97330.67
2022-09-09T01:09:30.214Z,97337.95
2022-09-09T01:12:07.321Z,97338.16
2022-09-09T01:14:41.182Z,97338.27
2022-09-09T01:17:23.721Z,97344.39
2022-09-09T01:20:20.592Z,97341.41
2022-09-09T01:23:08.291Z,97333.98
2022-09-09T01:25:53.245Z,97335.48
2022-09-09T01:28:26.094Z,97336.77
2022-09-09T01:30:56.186Z,97324.42
2022-09-09T01:33:25.267Z,97334.83
2022-09-09T01:36:05.215Z,97338.23
2022-09-09T01:38:35.588Z,97329.83
2022-09-09T01:41:03.607Z,97327.63
2022-09-09T01:43:33.217Z,97324.27
2022-09-09T01:46:03.046Z,97317.22
2022-09-09T01:48:32.048Z,97321.78
2022-09-09T01:51:04.289Z,97327.66
2022-09-09T01:53:31.854Z,97327.38
2022-09-09T01:56:14.740Z,97328.32
2022-09-09T01:58:51.781Z,97328.45
2022-09-09T02:01:42.038Z,97331.50
2022-09-09T02:04:22.278Z,97327.02
2022-09-09T02:06:51.636Z,97325.43
2022-09-09T02:09:23.367Z,97329.49
2022-09-09T02:11:57.616Z,97331.08
2022-09-09T02:14:29.876Z,97331.50
2022-09-09T02:17:09.713Z,97334.44
2022-09-09T02:19:49.262Z,97330.02
2022-09-09T02:22:23.512Z,97324.80
2022-09-09T02:24:52.585Z,97322.47
2022-09-09T02:27:23.068Z,97323.24
2022-09-09T02:29:52.241Z,97319.39
2022-09-09T02:32:23.623Z,97319.31
2022-09-09T02:34:57.024Z,97321.53
2022-09-09T02:37:28.841Z,97315.09
2022-09-09T02:39:56.736Z,97313.06
2022-09-09T02:42:25.019Z,97320.41
2022-09-09T02:44:53.143Z,97330.04
2022-09-09T02:47:33.001Z,97309.66
2022-09-09T02:50:25.202Z,97310.20
2022-09-09T02:53:06.130Z,97313.06
2022-09-09T02:55:46.697Z,97326.02
2022-09-09T02:58:19.790Z,97317.70
2022-09-09T03:00:51.217Z,97311.27
2022-09-09T03:03:20.148Z,97309.13
2022-09-09T03:05:48.125Z,97315.33
2022-09-09T03:08:15.840Z,97311.84
2022-09-09T03:10:44.099Z,97312.83
2022-09-09T03:13:13.594Z,97320.41
2022-09-09T03:15:42.609Z,97318.32
2022-09-09T03:18:11.830Z,97322.83
2022-09-09T03:20:39.148Z,97322.46
2022-09-09T03:23:06.531Z,97329.88
2022-09-09T03:25:34.596Z,97325.72
2022-09-09T03:28:02.229Z,97318.59
2022-09-09T03:30:29.693Z,97328.79
2022-09-09T03:32:57.868Z,97318.40
2022-09-09T03:35:27.067Z,97321.39
2022-09-09T03:37:55.491Z,97314.28
2022-09-09T03:40:24.041Z,97314.12
2022-09-09T03:42:51.520Z,97324.48
2022-09-09T03:45:18.902Z,97325.11
2022-09-09T03:47:46.435Z,97316.27
2022-09-09T03:50:14.125Z,97315.56
2022-09-09T03:52:43.164Z,97319.70
2022-09-09T03:55:15.462Z,97327.70
2022-09-09T03:57:43.638Z,97328.76
2022-09-09T04:00:12.301Z,97328.05
2022-09-09T04:02:46.719Z,97326.19
2022-09-09T04:05:16.013Z,97339.03
2022-09-09T04:07:44.508Z,97367.22
2022-09-09T04:10:11.790Z,97385.48
2022-09-09T04:12:40.104Z,97389.45
2022-09-09T04:15:08.492Z,97395.59
2022-09-09T04:17:36.811Z,97417.02
2022-09-09T04:20:05.405Z,97418.86
2022-09-09T04:22:32.716Z,97415.17
2022-09-09T04:25:00.408Z,97429.07
2022-09-09T04:27:29.523Z,97428.42
2022-09-09T04:29:57.760Z,97451.97
2022-09-09T04:32:31.992Z,97447.01
2022-09-09T04:34:59.349Z,97431.17
2022-09-09T04:37:26.793Z,97425.58
2022-09-09T04:39:54.669Z,97429.58
2022-09-09T04:42:22.181Z,97424.22
2022-09-09T04:44:49.923Z,97420.41
2022-09-09T04:47:17.963Z,97423.77
2022-09-09T04:49:45.413Z,97425.77
2022-09-09T04:52:12.779Z,97429.70
2022-09-09T04:54:41.375Z,97427.77
2022-09-09T04:57:14.189Z,97431.32
2022-09-09T04:59:40.581Z,97436.75
2022-09-09T05:02:08.102Z,97433.46
2022-09-09T05:04:36.336Z,97429.83
2022-09-09T05:07:04.121Z,97429.45
2022-09-09T05:09:31.840Z,97419.75
2022-09-09T05:11:59.910Z,97409.84
2022-09-09T05:14:30.526Z,97404.27
2022-09-09T05:16:58.570Z,97389.21
2022-09-09T05:19:25.865Z,97382.09
2022-09-09T05:21:53.659Z,97387.66
2022-09-09T05:24:25.616Z,97381.45
2022-09-09T05:26:55.452Z,97381.89
2022-09-09T05:29:23.548Z,97384.81
2022-09-09T05:31:51.032Z,97384.47
2022-09-09T05:34:21.177Z,97382.30
2022-09-09T05:36:48.493Z,97383.52
2022-09-09T05:39:16.645Z,97386.16
2022-09-09T05:41:43.942Z,97384.86
2022-09-09T05:44:11.264Z,97391.84
2022-09-09T05:46:40.292Z,97393.98
2022-09-09T05:49:08.739Z,97401.55
2022-09-09T05:51:36.228Z,97391.56
2022-09-09T05:54:05.404Z,97399.53
2022-09-09T05:56:34.586Z,97399.59
2022-09-09T05:59:02.208Z,97396.95
2022-09-09T06:01:33.253Z,97396.39
2022-09-09T06:04:01.333Z,97405.66
2022-09-09T06:06:36.195Z,97418.25
2022-09-09T06:09:06.850Z,97411.47
2022-09-09T06:11:36.623Z,97401.19
2022-09-09T06:14:04.622Z,97403.53
2022-09-09T06:16:35.618Z,97401.02
2022-09-09T06:19:03.764Z,97409.28
2022-09-09T06:21:37.499Z,97412.69
2022-09-09T06:24:05.689Z,97413.62
2022-09-09T06:26:35.896Z,97404.23
2022-09-09T06:29:04.356Z,97408.19
2022-09-09T06:31:34.603Z,97421.16
2022-09-09T06:34:07.090Z,97437.22
2022-09-09T06:36:38.242Z,97440.82
2022-09-09T06:39:10.886Z,97437.66
2022-09-09T06:41:37.655Z,97432.33
2022-09-09T06:44:07.104Z,97441.17
2022-09-09T06:46:36.298Z,97440.64
2022-09-09T06:49:04.004Z,97440.11
2022-09-09T06:51:33.881Z,97442.25
2022-09-09T06:54:04.337Z,97431.17
2022-09-09T06:56:37.680Z,97436.81
2022-09-09T06:59:08.940Z,97438.98
2022-09-09T07:01:38.603Z,97437.05
2022-09-09T07:04:09.287Z,97435.88
2022-09-09T07:06:40.690Z,97428.70
2022-09-09T07:09:10.159Z,97422.72
2022-09-09T07:11:42.355Z,97420.98
2022-09-09T07:14:12.323Z,97409.53
2022-09-09T07:16:39.985Z,97402.73
2022-09-09T07:19:07.264Z,97406.03
2022-09-09T07:21:35.197Z,97396.89
2022-09-09T07:24:02.710Z,97399.97
2022-09-09T07:26:31.205Z,97387.48
2022-09-09T07:28:59.613Z,97380.27
2022-09-09T07:31:32.698Z,97365.27
2022-09-09T07:34:01.293Z,97365.60
2022-09-09T07:36:33.456Z,97379.54
2022-09-09T07:39:04.317Z,97382.26
2022-09-09T07:41:35.433Z,97381.70
2022-09-09T07:44:08.456Z,97369.48
2022-09-09T07:46:36.905Z,97371.81
2022-09-09T07:49:04.498Z,97364.24
2022-09-09T07:51:42.165Z,97368.52
2022-09-09T07:54:15.578Z,97365.64
2022-09-09T07:56:44.776Z,97367.41
2022-09-09T07:59:12.795Z,97362.98
2022-09-09T08:01:45.743Z,97364.34
2022-09-09T08:04:17.092Z,97377.02
2022-09-09T08:06:47.720Z,97383.50
2022-09-09T08:09:16.401Z,97384.53
2022-09-09T08:11:44.261Z,97384.02
2022-09-09T08:14:12.400Z,97381.39
2022-09-09T08:16:42.742Z,97371.11
2022-09-09T08:19:10.960Z,97376.23
2022-09-09T08:21:41.379Z,97375.73
2022-09-09T08:24:11.243Z,97371.54
2022-09-09T08:26:43.868Z,97370.26
2022-09-09T08:29:14.191Z,97368.39
2022-09-09T08:31:47.514Z,97369.44
2022-09-09T08:34:15.819Z,97366.36
2022-09-09T08:36:45.860Z,97374.60
2022-09-09T08:39:15.538Z,97366.92
2022-09-09T08:42:05.905Z,97365.05
2022-09-09T08:44:56.707Z,97362.94
2022-09-09T08:47:40.765Z,97368.23
2022-09-09T08:50:25.943Z,97372.14
2022-09-09T08:53:00.020Z,97381.31
2022-09-09T08:55:51.707Z,97389.52
2022-09-09T08:58:25.310Z,97378.27
2022-09-09T09:01:13.005Z,97374.83
2022-09-09T09:04:07.326Z,97370.97
2022-09-09T09:06:57.862Z,97368.88
2022-09-09T09:09:38.358Z,97362.52
2022-09-09T09:12:10.052Z,97356.73
2022-09-09T09:14:38.557Z,97366.54
2022-09-09T09:17:13.584Z,97375.92
2022-09-09T09:19:42.161Z,97378.72
2022-09-09T09:22:34.129Z,97376.89
2022-09-09T09:25:23.717Z,97373.23
2022-09-09T09:27:57.677Z,97370.55
2022-09-09T09:30:30.585Z,97368.29
2022-09-09T09:33:03.719Z,97367.92
2022-09-09T09:35:31.404Z,97358.41
2022-09-09T09:40:30.921Z,97374.08
2022-09-09T09:43:00.966Z,97373.91
2022-09-09T09:45:34.516Z,97374.14
2022-09-09T09:48:07.508Z,97378.83
2022-09-09T09:50:35.354Z,97374.56
2022-09-09T09:53:07.587Z,97370.11
2022-09-09T09:55:37.359Z,97369.90
2022-09-09T09:58:06.799Z,97366.98
2022-09-09T10:00:37.619Z,97377.14
2022-09-09T10:03:22.833Z,97378.11
2022-09-09T10:05:50.400Z,97372.28
2022-09-09T10:08:19.494Z,97380.08
2022-09-09T10:11:17.102Z,97367.59
2022-09-09T10:14:03.311Z,97383.40
2022-09-09T10:16:55.069Z,97381.06
2022-09-09T10:19:28.861Z,97384.39
2022-09-09T10:22:20.952Z,97388.27
2022-09-09T10:25:06.986Z,97401.93
2022-09-09T10:28:06.344Z,97411.30
2022-09-09T10:30:49.891Z,97415.77
2022-09-09T10:33:33.282Z,97414.20
2022-09-09T10:36:21.985Z,97412.45
2022-09-09T10:39:11.568Z,97411.27
2022-09-09T10:42:10.340Z,97410.66
2022-09-09T10:44:50.233Z,97406.35
2022-09-09T10:47:39.252Z,97410.02
2022-09-09T10:50:59.858Z,97426.94
2022-09-09T10:53:34.053Z,97432.97
2022-09-09T10:56:11.577Z,97425.16
2022-09-09T10:58:43.463Z,97424.77
2022-09-09T11:01:20.645Z,97433.31
2022-09-09T11:03:52.033Z,97441.90
2022-09-09T11:06:22.246Z,97447.15
2022-09-09T11:08:52.675Z,97449.50
2022-09-09T11:11:38.773Z,97453.95
2022-09-09T11:14:28.515Z,97462.14
2022-09-09T11:17:01.514Z,97461.38
2022-09-09T11:19:34.845Z,97465.91
2022-09-09T11:22:22.587Z,97461.42
2022-09-09T11:25:00.887Z,97464.61
2022-09-09T11:27:47.522Z,97465.02
2022-09-09T11:30:51.347Z,97464.63
2022-09-09T11:33:04.448Z,97463.44
2022-09-09T11:35:42.076Z,97466.17
2022-09-09T11:38:30.008Z,97461.70
2022-09-09T11:41:03.207Z,97458.77
2022-09-09T11:43:49.698Z,97453.89
2022-09-09T11:46:24.221Z,97451.93
2022-09-09T11:49:06.782Z,97456.79
2022-09-09T11:51:37.775Z,97450.01
2022-09-09T11:54:36.197Z,97448.64
2022-09-09T11:57:05.384Z,97452.36
2022-09-09T11:59:33.652Z,97459.97
2022-09-09T12:02:04.403Z,97452.20
2022-09-09T12:04:38.441Z,97447.13
2022-09-09T12:07:12.533Z,97442.08
2022-09-09T12:09:49.898Z,97443.05
2022-09-09T12:12:24.610Z,97442.68
2022-09-09T12:15:04.764Z,97442.09
2022-09-09T12:17:47.777Z,97437.41
2022-09-09T12:20:37.470Z,97442.50
2022-09-09T12:23:36.577Z,97438.02
2022-09-09T12:26:10.674Z,97441.53
2022-09-09T12:28:54.496Z,97441.36
2022-09-09T12:31:46.938Z,97443.13
2022-09-09T12:34:26.371Z,97434.94
2022-09-09T12:37:00.433Z,97432.58
2022-09-09T12:39:36.491Z,97426.75
2022-09-09T12:42:09.120Z,97425.75
2022-09-09T12:44:40.525Z,97418.92
2022-09-09T12:47:11.372Z,97412.33
2022-09-09T12:49:46.837Z,97407.42
2022-09-09T12:52:20.428Z,97406.27
2022-09-09T12:54:48.824Z,97404.48
2022-09-09T12:57:18.912Z,97401.55
2022-09-09T12:59:49.748Z,97401.73
2022-09-09T13:02:22.648Z,97404.45
2022-09-09T13:04:51.971Z,97398.81
2022-09-09T13:07:22.501Z,97398.62
2022-09-09T13:09:50.537Z,97397.05
2022-09-09T13:12:20.256Z,97394.91
2022-09-09T13:14:54.436Z,97400.01
2022-09-09T13:17:24.824Z,97394.72
2022-09-09T13:20:08.532Z,97387.30
2022-09-09T13:22:41.144Z,97386.52
2022-09-09T13:25:15.234Z,97382.59
2022-09-09T13:27:44.745Z,97382.59
2022-09-09T13:30:23.330Z,97380.87
2022-09-09T13:33:14.943Z,97383.98
2022-09-09T13:35:54.873Z,97383.80
2022-09-09T13:38:27.085Z,97376.18
2022-09-09T13:41:03.055Z,97367.20
2022-09-09T13:43:36.610Z,97360.56
2022-09-09T13:46:07.915Z,97367.39
2022-09-09T13:48:37.915Z,97359.00
2022-09-09T13:51:06.349Z,97359.19
2022-09-09T13:53:33.803Z,97356.27
2022-09-09T13:56:01.814Z,97350.80
2022-09-09T13:58:29.552Z,97349.79
2022-09-09T14:00:57.818Z,97347.82
2022-09-09T14:03:25.423Z,97346.27
2022-09-09T14:05:53.321Z,97348.64
2022-09-09T14:08:25.738Z,97353.70
2022-09-09T14:10:53.832Z,97353.70
2022-09-09T14:13:22.395Z,97348.83
2022-09-09T14:15:50.285Z,97342.77
2022-09-09T14:18:17.699Z,97341.00
2022-09-09T14:20:45.535Z,97339.64
2022-09-09T14:23:13.214Z,97330.88
2022-09-09T14:25:44.475Z,97335.35
2022-09-09T14:28:13.246Z,97329.70
2022-09-09T14:30:41.966Z,97328.34
2022-09-09T14:33:11.434Z,97326.38
2022-09-09T14:35:40.069Z,97326.20
2022-09-09T14:38:08.394Z,97322.86
2022-09-09T14:40:37.071Z,97320.30
2022-09-09T14:43:06.368Z,97325.73
2022-09-09T14:45:33.969Z,97316.72
2022-09-09T14:48:01.493Z,97315.52
2022-09-09T14:50:29.099Z,97319.23
2022-09-09T14:52:56.364Z,97317.83
2022-09-09T14:55:29.874Z,97312.72
2022-09-09T14:57:57.587Z,97318.55
2022-09-09T15:02:54.179Z,97324.60
2022-09-09T15:05:21.905Z,97323.05
2022-09-09T15:07:49.229Z,97331.05
2022-09-09T15:10:17.654Z,97328.53
2022-09-09T15:12:45.285Z,97323.25
2022-09-09T15:15:13.719Z,97327.56
2022-09-09T15:17:41.421Z,97327.95
2022-09-09T15:20:10.008Z,97331.07
2022-09-09T15:22:38.609Z,97330.52
2022-09-09T15:25:06.318Z,97329.38
2022-09-09T15:27:34.651Z,97326.05
2022-09-09T15:30:01.965Z,97323.69
2022-09-09T15:32:35.069Z,97326.04
2022-09-09T15:35:05.547Z,97328.59
2022-09-09T15:37:33.177Z,97327.39
2022-09-09T15:40:01.068Z,97326.41
2022-09-09T15:42:30.718Z,97319.92
2022-09-09T15:44:58.471Z,97320.68
2022-09-09T15:47:25.928Z,97321.08
2022-09-09T15:49:53.561Z,97317.92
2022-09-09T15:52:20.986Z,97317.56
2022-09-09T15:54:48.322Z,97316.39
2022-09-09T15:57:16.016Z,97318.20
2022-09-09T15:59:45.345Z,97321.49
2022-09-09T16:02:12.893Z,97315.25
2022-09-09T16:04:40.471Z,97312.94
2022-09-09T16:07:08.062Z,97316.48
2022-09-09T16:09:35.627Z,97315.72
2022-09-09T16:12:08.282Z,97310.84
2022-09-09T16:14:36.248Z,97311.80
2022-09-09T16:17:05.505Z,97317.28
2022-09-09T16:19:34.993Z,97315.16
2022-09-09T16:22:02.828Z,97312.42
2022-09-09T16:24:30.185Z,97314.78
2022-09-09T16:26:57.715Z,97315.00
2022-09-09T16:29:27.763Z,97314.47
2022-09-09T16:31:56.993Z,97320.14
2022-09-09T16:34:25.902Z,97317.61
2022-09-09T16:36:53.211Z,97317.79
2022-09-09T16:39:21.149Z,97324.86
2022-09-09T16:41:49.219Z,97331.66
2022-09-09T16:44:19.129Z,97328.16
2022-09-09T16:46:49.133Z,97332.86
2022-09-09T16:49:16.986Z,97322.70
2022-09-09T16:51:49.663Z,97317.84
2022-09-09T16:54:18.393Z,97323.88
2022-09-09T16:56:47.575Z,97320.75
2022-09-09T16:59:16.729Z,97319.56
2022-09-09T17:01:46.351Z,97330.88
2022-09-09T17:04:17.665Z,97328.14
2022-09-09T17:06:49.741Z,97329.45
2022-09-09T17:09:17.779Z,97331.77
2022-09-09T17:11:46.030Z,97333.11
2022-09-09T17:14:20.721Z,97330.17
2022-09-09T17:16:48.001Z,97336.56
2022-09-09T17:19:17.570Z,97337.54
2022-09-09T17:22:12.613Z,97344.14
2022-09-09T17:24:16.365Z,97347.08
2022-09-09T17:26:45.390Z,97343.16
2022-09-09T17:29:12.529Z,97342.75
2022-09-09T17:31:41.311Z,97352.50
2022-09-09T17:34:09.779Z,97350.70
2022-09-09T17:36:38.628Z,97353.61
2022-09-09T17:39:07.454Z,97355.78
2022-09-09T17:41:37.806Z,97350.88
2022-09-09T17:46:40.670Z,97352.62
2022-09-09T17:49:13.340Z,97351.44
2022-09-09T17:51:41.981Z,97352.77
2022-09-09T17:54:12.508Z,97360.91
2022-09-09T17:56:41.591Z,97366.53
2022-09-09T17:59:12.806Z,97365.36
2022-09-09T18:01:44.208Z,97361.86
2022-09-09T18:04:16.293Z,97359.05
2022-09-09T18:06:45.988Z,97363.93
2022-09-09T18:09:19.779Z,97362.33
2022-09-09T18:11:55.086Z,97367.75
2022-09-09T18:14:25.813Z,97367.56
2022-09-09T18:16:53.519Z,97370.45
2022-09-09T18:19:24.182Z,97373.56
2022-09-09T18:21:52.217Z,97366.73
2022-09-09T18:24:21.016Z,97368.84
2022-09-09T18:26:49.663Z,97364.32
2022-09-09T18:29:20.160Z,97366.23
2022-09-09T18:31:48.328Z,97367.97
2022-09-09T18:34:18.265Z,97366.19
2022-09-09T18:36:48.895Z,97365.80
2022-09-09T18:39:18.212Z,97357.96
2022-09-09T18:41:47.867Z,97364.16
2022-09-09T18:44:20.078Z,97363.73
2022-09-09T18:46:48.286Z,97370.48
2022-09-09T18:49:16.094Z,97364.39
2022-09-09T18:51:45.864Z,97367.87
2022-09-09T18:54:22.069Z,97373.48
2022-09-09T18:56:49.603Z,97370.36
2022-09-09T18:59:20.019Z,97376.55
2022-09-09T19:01:49.802Z,97366.95
2022-09-09T19:04:18.529Z,97378.36
2022-09-09T19:06:49.023Z,97372.33
2022-09-09T19:09:18.055Z,97366.24
2022-09-09T19:11:47.448Z,97366.40
2022-09-09T19:14:16.893Z,97366.56
2022-09-09T19:16:47.941Z,97369.47
2022-09-09T19:19:19.306Z,97366.13
2022-09-09T19:21:47.205Z,97359.45
2022-09-09T19:24:17.879Z,97364.47
2022-09-09T19:26:47.837Z,97365.21
2022-09-09T19:29:18.869Z,97362.88
2022-09-09T19:32:09.372Z,97354.48
2022-09-09T19:34:18.465Z,97355.22
2022-09-09T19:36:46.950Z,97355.95
2022-09-09T19:39:14.891Z,97353.36
2022-09-09T19:41:42.487Z,97348.66
2022-09-09T19:44:12.673Z,97347.48
2022-09-09T19:46:43.419Z,97343.36
2022-09-09T19:49:11.149Z,97353.23
2022-09-09T19:51:38.490Z,97347.17
2022-09-09T19:54:09.096Z,97343.23
2022-09-09T19:56:38.139Z,97345.69
2022-09-09T19:59:06.766Z,97347.00
2022-09-09T20:01:40.268Z,97344.44
2022-09-09T20:04:06.914Z,97345.02
2022-09-09T20:06:39.255Z,97347.69
2022-09-09T20:09:08.193Z,97351.57
2022-09-09T20:11:35.473Z,97353.86
2022-09-09T20:14:03.036Z,97351.52
2022-09-09T20:16:31.072Z,97347.45
2022-09-09T20:19:01.723Z,97345.89
2022-09-09T20:21:32.609Z,97345.66
2022-09-09T20:24:01.996Z,97350.90
2022-09-09T20:26:34.386Z,97349.92
2022-09-09T20:29:05.100Z,97353.42
2022-09-09T20:31:39.615Z,97356.91
2022-09-09T20:34:12.848Z,97351.63
2022-09-09T20:36:40.854Z,97352.36
2022-09-09T20:39:16.309Z,97354.25
2022-09-09T20:41:44.878Z,97346.48
2022-09-09T20:44:15.776Z,97341.40
2022-09-09T20:46:47.256Z,97342.56
2022-09-09T20:49:17.171Z,97336.15
2022-09-09T20:51:45.574Z,97334.33
2022-09-09T20:54:19.463Z,97341.27
2022-09-09T20:56:47.783Z,97344.95
2022-09-09T20:59:18.623Z,97343.74
2022-09-09T21:01:47.230Z,97349.13
2022-09-09T21:04:16.959Z,97349.08
2022-09-09T21:06:44.782Z,97354.31
2022-09-09T21:09:13.137Z,97347.09
2022-09-09T21:11:41.434Z,97351.11
2022-09-09T21:14:09.151Z,97340.77
2022-09-09T21:16:36.751Z,97336.84
2022-09-09T21:19:04.008Z,97332.72
2022-09-09T21:21:31.453Z,97331.74
2022-09-09T21:24:00.099Z,97328.59
2022-09-09T21:26:27.748Z,97329.12
2022-09-09T21:28:55.307Z,97326.94
2022-09-09T21:31:27.861Z,97326.68
2022-09-09T21:33:53.246Z,97324.11
2022-09-09T21:36:20.848Z,97325.19
2022-09-09T21:38:48.416Z,97324.34
2022-09-09T21:41:16.894Z,97324.30
2022-09-09T21:43:46.271Z,97327.53
2022-09-09T21:46:16.002Z,97330.77
2022-09-09T21:48:43.852Z,97325.86
2022-09-09T21:51:14.191Z,97330.07
2022-09-09T21:53:41.628Z,97325.36
2022-09-09T21:56:18.031Z,97319.88
2022-09-09T21:58:46.281Z,97318.27
2022-09-09T22:01:18.125Z,97315.69
2022-09-09T22:03:46.078Z,97310.98
2022-09-09T22:06:15.328Z,97316.14
2022-09-09T22:08:43.831Z,97309.73
2022-09-09T22:11:14.125Z,97307.38
2022-09-09T22:13:42.153Z,97305.61
2022-09-09T22:16:11.751Z,97300.97
2022-09-09T22:18:40.003Z,97297.47
2022-09-09T22:21:13.720Z,97299.95
2022-09-09T22:23:41.289Z,97298.02
2022-09-09T22:26:09.639Z,97302.32
2022-09-09T22:28:38.174Z,97299.03
2022-09-09T22:31:05.997Z,97292.11
2022-09-09T22:33:34.372Z,97293.47
2022-09-09T22:36:02.235Z,97289.80
2022-09-09T22:38:29.579Z,97288.81
2022-09-09T22:40:57.656Z,97284.89
2022-09-09T22:43:24.891Z,97282.95
2022-09-09T22:45:51.986Z,97287.40
2022-09-09T22:48:19.627Z,97277.91
2022-09-09T22:50:50.267Z,97275.77
2022-09-09T22:53:22.342Z,97271.47
2022-09-09T22:56:00.876Z,97270.80
2022-09-09T22:58:30.721Z,97273.11
2022-09-09T23:00:58.856Z,97266.48
2022-09-09T23:03:28.443Z,97264.48
2022-09-09T23:05:58.091Z,97263.13
2022-09-09T23:08:30.047Z,97252.42
2022-09-09T23:10:57.975Z,97253.38
2022-09-09T23:13:27.113Z,97239.81
2022-09-09T23:15:54.711Z,97242.87
2022-09-09T23:18:24.151Z,97238.02
2022-09-09T23:21:01.654Z,97245.95
2022-09-09T23:23:28.960Z,97246.88
2022-09-09T23:25:56.545Z,97245.89
2022-09-09T23:28:24.007Z,97239.70
2022-09-09T23:30:51.292Z,97249.19
2022-09-09T23:33:18.865Z,97247.83
2022-09-09T23:35:46.537Z,97255.96
2022-09-09T23:38:14.339Z,97255.76
2022-09-09T23:40:42.471Z,97256.68
2022-09-09T23:43:09.851Z,97255.53
2022-09-09T23:45:40.134Z,97252.55
2022-09-09T23:48:07.454Z,97252.29
2022-09-09T23:50:34.948Z,97250.50
2022-09-09T23:53:02.648Z,97258.19
2022-09-09T23:55:30.124Z,97252.16
2022-09-09T23:57:57.278Z,97249.59
